Time;durP1;ratioP1;P1;durP2;ratioP2;P2;SDS_P1;SDS_P2;PMS_P1;PMS_P2;Temp;Humidity;BMP_temperature;BMP_pressure;BME280_temperature;BME280_humidity;BME280_pressure;Samples;Min_cycle;Max_cycle;Signal;HPM_P1;HPM_P2
2021/06/26 00:01:55;;;;;;;0.00;0.00;;;17.40;99.90;;;;;;5069101;28;20197;-69
2021/06/26 00:04:21;;;;;;;0.10;0.10;;;17.40;99.90;;;;;;5071887;28;20203;-68
2021/06/26 00:06:47;;;;;;;0.03;0.03;;;17.40;99.90;;;;;;5075671;28;20160;-69
2021/06/26 00:09:13;;;;;;;0.00;0.00;;;17.40;99.90;;;;;;5075753;28;20152;-68
2021/06/26 00:11:39;;;;;;;0.20;0.20;;;17.40;99.90;;;;;;5075633;28;20271;-69
2021/06/26 00:14:06;;;;;;;0.10;0.10;;;17.40;99.90;;;;;;5075656;28;20157;-70
2021/06/26 00:16:32;;;;;;;10.63;0.65;;;17.40;99.90;;;;;;5057593;28;20160;-69
2021/06/26 00:18:58;;;;;;;0.43;0.20;;;17.30;99.90;;;;;;5057549;28;20224;-69
2021/06/26 00:21:24;;;;;;;0.13;0.13;;;17.30;99.90;;;;;;5075514;28;20239;-69
2021/06/26 00:23:50;;;;;;;0.10;0.10;;;17.30;99.90;;;;;;5075570;28;20156;-69
2021/06/26 00:26:18;;;;;;;0.20;0.10;;;17.20;99.90;;;;;;5057508;28;20252;-69
2021/06/26 00:28:44;;;;;;;0.10;0.10;;;17.10;99.90;;;;;;5075546;28;20207;-68
2021/06/26 00:31:10;;;;;;;1.02;0.32;;;17.00;99.90;;;;;;5075621;28;20157;-69
2021/06/26 00:33:36;;;;;;;0.10;0.10;;;17.00;99.90;;;;;;5057425;28;20220;-69
2021/06/26 00:36:03;;;;;;;0.10;0.10;;;16.90;99.90;;;;;;5075485;28;20153;-69
2021/06/26 00:38:29;;;;;;;0.20;0.20;;;16.80;99.90;;;;;;5075503;28;20316;-69
2021/06/26 00:40:55;;;;;;;0.10;0.10;;;16.70;99.90;;;;;;5075458;28;20649;-69
2021/06/26 00:43:21;;;;;;;0.10;0.10;;;16.70;99.90;;;;;;5075046;28;20251;-69
2021/06/26 00:45:48;;;;;;;0.03;0.03;;;16.70;99.90;;;;;;5075300;28;20253;-70
2021/06/26 00:48:15;;;;;;;0.20;0.20;;;16.80;99.90;;;;;;5075385;28;20157;-68
2021/06/26 00:50:41;;;;;;;0.63;0.30;;;16.80;99.90;;;;;;5062092;28;20197;-69
2021/06/26 00:53:06;;;;;;;0.10;0.10;;;16.90;99.90;;;;;;5095005;28;20199;-69
2021/06/26 00:55:32;;;;;;;0.10;0.10;;;17.10;99.90;;;;;;5095214;28;20246;-69
2021/06/26 00:58:02;;;;;;;0.20;0.20;;;17.10;99.90;;;;;;5082136;28;20192;-69
2021/06/26 01:00:29;;;;;;;0.00;0.00;;;17.10;99.90;;;;;;5075545;28;20203;-68
2021/06/26 01:02:56;;;;;;;0.20;0.20;;;17.00;99.90;;;;;;5075250;28;20168;-69
2021/06/26 01:05:23;;;;;;;0.10;0.10;;;16.90;99.90;;;;;;5057163;28;20196;-69
2021/06/26 01:07:49;;;;;;;0.00;0.00;;;17.00;99.90;;;;;;5075219;28;20159;-69
2021/06/26 01:10:15;;;;;;;0.57;0.57;;;17.10;99.90;;;;;;5075231;28;20192;-69
2021/06/26 01:12:42;;;;;;;0.10;0.10;;;17.20;99.90;;;;;;5075050;28;20157;-69
2021/06/26 01:15:10;;;;;;;0.52;0.20;;;17.30;99.90;;;;;;5073992;28;20157;-69
2021/06/26 01:17:39;;;;;;;0.17;0.17;;;17.20;99.90;;;;;;5071467;28;20156;-69
2021/06/26 01:20:08;;;;;;;0.20;0.20;;;17.20;99.90;;;;;;5071920;28;20157;-67
2021/06/26 01:22:42;;;;;;;0.00;0.00;;;17.30;99.90;;;;;;5071901;28;20161;-67
2021/06/26 01:25:10;;;;;;;8.70;0.52;;;17.20;99.90;;;;;;5071713;28;20200;-69
2021/06/26 01:27:36;;;;;;;0.00;0.00;;;16.90;99.90;;;;;;5071807;28;20157;-69
2021/06/26 01:30:03;;;;;;;4.03;0.90;;;17.00;99.90;;;;;;5071744;28;20161;-69
2021/06/26 01:32:29;;;;;;;0.10;0.10;;;17.00;99.90;;;;;;5071704;28;20153;-67
2021/06/26 01:34:55;;;;;;;0.10;0.10;;;16.90;99.90;;;;;;5053697;28;20189;-69
2021/06/26 01:37:21;;;;;;;0.10;0.10;;;16.90;99.90;;;;;;5071660;28;20187;-68
2021/06/26 01:39:46;;;;;;;0.10;0.10;;;16.90;99.90;;;;;;5053591;28;20171;-66
2021/06/26 01:42:12;;;;;;;0.10;0.10;;;17.00;99.90;;;;;;5071444;28;20196;-69
2021/06/26 01:44:38;;;;;;;0.00;0.00;;;17.20;99.90;;;;;;5071236;28;20235;-68
2021/06/26 01:47:09;;;;;;;0.00;0.00;;;17.20;99.90;;;;;;5071451;28;20649;-69
2021/06/26 01:49:37;;;;;;;0.47;0.47;;;17.10;99.90;;;;;;5071389;28;20161;-67
2021/06/26 01:52:04;;;;;;;0.55;0.55;;;17.20;99.90;;;;;;5089865;28;20195;-67
2021/06/26 01:54:30;;;;;;;0.38;0.38;;;17.20;99.90;;;;;;5101341;28;20184;-67
2021/06/26 01:56:56;;;;;;;0.45;0.45;;;17.20;99.90;;;;;;5068670;28;20176;-67
2021/06/26 01:59:22;;;;;;;0.57;0.40;;;17.10;99.90;;;;;;5071272;28;20160;-67
2021/06/26 02:01:48;;;;;;;5.80;0.38;;;16.80;99.90;;;;;;5071155;28;20197;-67
2021/06/26 02:04:14;;;;;;;0.10;0.10;;;16.60;99.90;;;;;;5071139;28;20170;-67
2021/06/26 02:06:40;;;;;;;0.00;0.00;;;16.70;99.90;;;;;;5071120;28;20165;-68
2021/06/26 02:09:07;;;;;;;0.43;0.22;;;16.70;99.90;;;;;;5071017;28;20236;-67
2021/06/26 02:11:34;;;;;;;0.10;0.10;;;16.70;99.90;;;;;;5070803;28;20192;-68
2021/06/26 02:14:00;;;;;;;0.10;0.10;;;16.60;99.90;;;;;;5071020;28;20157;-69
2021/06/26 02:16:26;;;;;;;0.60;0.60;;;16.70;99.90;;;;;;5052954;28;20232;-68
2021/06/26 02:18:53;;;;;;;0.30;0.30;;;16.80;99.90;;;;;;5070917;28;20215;-69
2021/06/26 02:21:19;;;;;;;0.20;0.20;;;16.80;99.90;;;;;;5070753;28;20412;-70
2021/06/26 02:23:45;;;;;;;0.10;0.10;;;16.80;99.90;;;;;;5070791;28;20161;-69
2021/06/26 02:26:11;;;;;;;0.20;0.20;;;16.90;99.90;;;;;;5070668;28;20243;-68
2021/06/26 02:28:37;;;;;;;0.47;0.47;;;17.00;99.90;;;;;;5070336;28;20164;-69
2021/06/26 02:31:03;;;;;;;0.10;0.10;;;16.90;99.90;;;;;;5070526;28;20184;-69
2021/06/26 02:33:29;;;;;;;0.10;0.10;;;16.90;99.90;;;;;;5070540;28;20165;-69
2021/06/26 02:35:55;;;;;;;0.10;0.10;;;16.90;99.90;;;;;;5070444;28;20222;-70
2021/06/26 02:38:21;;;;;;;0.20;0.20;;;16.50;99.90;;;;;;5070450;28;20156;-69
2021/06/26 02:40:47;;;;;;;0.30;0.30;;;16.40;99.90;;;;;;5070351;28;20275;-70
2021/06/26 02:43:13;;;;;;;0.73;0.70;;;16.20;99.90;;;;;;5070004;28;20187;-69
2021/06/26 02:45:39;;;;;;;2.65;0.30;;;16.30;99.90;;;;;;5052372;28;20196;-69
2021/06/26 02:48:05;;;;;;;2.40;1.17;;;16.40;99.90;;;;;;5070302;28;20249;-69
2021/06/26 02:50:31;;;;;;;0.10;0.10;;;16.40;99.90;;;;;;5070095;28;20215;-69
2021/06/26 02:52:57;;;;;;;1.30;0.63;;;16.40;99.90;;;;;;5076066;28;20199;-69
2021/06/26 02:55:23;;;;;;;0.35;0.35;;;16.30;99.90;;;;;;5074531;28;20191;-68
2021/06/26 02:57:48;;;;;;;0.63;0.40;;;16.30;99.90;;;;;;5081314;28;20183;-70
2021/06/26 03:00:15;;;;;;;0.15;0.15;;;16.40;99.90;;;;;;5089888;28;20192;-68
2021/06/26 03:02:41;;;;;;;0.13;0.13;;;16.50;99.90;;;;;;5089952;28;20152;-69
2021/06/26 03:05:07;;;;;;;0.63;0.63;;;16.50;99.90;;;;;;5089780;28;20308;-68
2021/06/26 03:07:33;;;;;;;0.93;0.75;;;16.50;99.90;;;;;;5089987;28;20617;-68
2021/06/26 03:09:59;;;;;;;0.10;0.10;;;16.50;99.90;;;;;;5089652;28;20206;-69
2021/06/26 03:12:25;;;;;;;0.20;0.20;;;16.50;99.90;;;;;;5089840;28;20160;-67
2021/06/26 03:14:51;;;;;;;17.52;0.90;;;16.40;99.90;;;;;;5089667;28;20164;-69
2021/06/26 03:17:16;;;;;;;0.10;0.10;;;16.40;99.90;;;;;;5089858;28;20160;-67
2021/06/26 03:19:43;;;;;;;0.22;0.22;;;16.40;99.90;;;;;;5089554;28;20160;-69
2021/06/26 03:22:09;;;;;;;0.40;0.38;;;16.40;99.90;;;;;;5089590;28;20196;-69
2021/06/26 03:24:35;;;;;;;0.32;0.32;;;16.50;99.90;;;;;;5089425;28;20192;-67
2021/06/26 03:27:01;;;;;;;0.30;0.30;;;16.50;99.90;;;;;;5089412;28;20174;-70
2021/06/26 03:29:26;;;;;;;0.70;0.43;;;16.60;99.90;;;;;;5071247;28;20160;-68
2021/06/26 03:31:52;;;;;;;0.25;0.25;;;16.60;99.90;;;;;;5089374;28;20199;-69
2021/06/26 03:34:18;;;;;;;0.40;0.40;;;16.60;99.90;;;;;;5089475;28;20153;-69
2021/06/26 03:36:44;;;;;;;0.28;0.28;;;16.70;99.90;;;;;;5089461;28;20706;-69
2021/06/26 03:39:11;;;;;;;1.02;0.98;;;16.70;99.90;;;;;;5088710;28;20469;-69
2021/06/26 03:41:37;;;;;;;0.45;0.45;;;16.80;99.90;;;;;;5092155;28;20187;-69
2021/06/26 03:44:03;;;;;;;0.63;0.63;;;16.90;99.90;;;;;;5100261;28;20238;-69
2021/06/26 03:46:29;;;;;;;0.30;0.10;;;17.00;99.90;;;;;;5109472;28;20232;-69
2021/06/26 03:48:55;;;;;;;0.00;0.00;;;17.10;99.90;;;;;;5109686;28;20156;-70
2021/06/26 03:51:22;;;;;;;0.40;0.40;;;17.10;99.90;;;;;;5109380;28;20186;-70
2021/06/26 03:53:49;;;;;;;0.00;0.00;;;17.10;99.90;;;;;;5109518;28;20155;-69
2021/06/26 03:56:15;;;;;;;1.20;0.93;;;17.40;99.90;;;;;;5109408;28;20171;-69
2021/06/26 03:58:41;;;;;;;0.25;0.25;;;18.00;99.90;;;;;;5084473;28;20180;-69
2021/06/26 04:01:07;;;;;;;0.30;0.30;;;18.40;99.90;;;;;;5089069;28;20192;-70
2021/06/26 04:03:33;;;;;;;0.10;0.10;;;19.10;99.90;;;;;;5089161;28;20164;-69
2021/06/26 04:05:59;;;;;;;0.60;0.60;;;19.60;99.90;;;;;;5089058;28;20192;-69
2021/06/26 04:08:25;;;;;;;0.75;0.63;;;20.00;99.90;;;;;;5089103;28;20156;-69
2021/06/26 04:10:51;;;;;;;1.63;0.38;;;20.50;99.90;;;;;;5088941;28;20187;-70
2021/06/26 04:13:17;;;;;;;0.30;0.30;;;20.60;99.90;;;;;;5089093;28;20205;-69
2021/06/26 04:15:43;;;;;;;0.10;0.10;;;20.50;99.90;;;;;;5088984;28;20613;-69
2021/06/26 04:18:09;;;;;;;0.15;0.15;;;20.30;99.90;;;;;;5088979;28;20167;-67
2021/06/26 04:20:35;;;;;;;0.73;0.45;;;20.30;99.90;;;;;;5088864;28;20184;-69
2021/06/26 04:23:01;;;;;;;0.10;0.10;;;20.60;99.90;;;;;;5088957;28;20188;-68
2021/06/26 04:25:28;;;;;;;0.45;0.45;;;21.20;99.90;;;;;;5088709;28;20182;-68
2021/06/26 04:27:54;;;;;;;0.05;0.05;;;21.60;99.90;;;;;;5070822;28;20164;-69
2021/06/26 04:30:21;;;;;;;0.20;0.20;;;22.30;99.90;;;;;;5088789;28;20257;-69
2021/06/26 04:32:46;;;;;;;0.30;0.30;;;22.30;99.90;;;;;;5088949;28;20152;-69
2021/06/26 04:35:14;;;;;;;0.20;0.20;;;21.90;99.90;;;;;;5088633;28;20164;-69
2021/06/26 04:37:40;;;;;;;0.20;0.10;;;21.90;99.90;;;;;;5088759;28;20176;-69
2021/06/26 04:40:06;;;;;;;0.22;0.22;;;22.50;99.90;;;;;;5070754;28;20190;-69
2021/06/26 04:42:32;;;;;;;0.35;0.30;;;23.50;99.90;;;;;;5070763;28;20254;-69
2021/06/26 04:44:58;;;;;;;0.25;0.25;;;24.70;99.90;;;;;;5088367;28;20233;-69
2021/06/26 04:47:27;;;;;;;0.47;0.45;;;25.40;99.90;;;;;;5088903;28;20167;-69
2021/06/26 04:49:53;;;;;;;0.43;0.43;;;25.10;99.90;;;;;;5089201;28;20160;-69
2021/06/26 04:52:20;;;;;;;1.08;0.98;;;25.30;99.90;;;;;;5092456;28;20190;-69
2021/06/26 04:54:46;;;;;;;0.55;0.35;;;25.90;99.90;;;;;;5092418;28;20152;-69
2021/06/26 04:57:12;;;;;;;1.58;0.30;;;26.30;99.90;;;;;;5087480;28;20191;-69
2021/06/26 04:59:38;;;;;;;0.10;0.10;;;25.90;99.90;;;;;;5090325;28;20270;-69
2021/06/26 05:02:04;;;;;;;0.22;0.22;;;25.10;99.90;;;;;;5092272;28;20199;-69
2021/06/26 05:04:30;;;;;;;0.05;0.05;;;24.00;99.90;;;;;;5092363;28;20199;-69
2021/06/26 05:06:56;;;;;;;0.30;0.30;;;24.00;99.90;;;;;;5074183;28;20202;-69
2021/06/26 05:09:23;;;;;;;0.95;0.90;;;24.10;99.90;;;;;;5092049;28;20637;-69
2021/06/26 05:11:49;;;;;;;1.27;0.55;;;24.10;99.90;;;;;;5091947;28;20187;-69
2021/06/26 05:14:15;;;;;;;0.22;0.22;;;24.40;99.90;;;;;;5074042;28;20155;-69
2021/06/26 05:16:44;;;;;;;0.10;0.10;;;24.80;99.90;;;;;;5092017;28;20656;-69
2021/06/26 05:19:11;;;;;;;0.60;0.60;;;24.50;99.90;;;;;;5074034;28;20168;-68
2021/06/26 05:21:37;;;;;;;0.55;0.55;;;24.30;99.90;;;;;;5091855;28;20200;-69
2021/06/26 05:24:04;;;;;;;0.40;0.40;;;24.40;99.90;;;;;;5091982;28;20243;-69
2021/06/26 05:26:30;;;;;;;0.20;0.20;;;24.80;99.90;;;;;;5073709;28;20578;-69
2021/06/26 05:28:56;;;;;;;0.10;0.10;;;25.60;99.90;;;;;;5091871;28;20156;-69
2021/06/26 05:31:22;;;;;;;0.00;0.00;;;26.10;99.90;;;;;;5091747;28;20191;-69
2021/06/26 05:33:51;;;;;;;0.20;0.20;;;26.90;99.90;;;;;;5091813;28;20250;-69
2021/06/26 05:36:17;;;;;;;0.47;0.20;;;27.00;99.90;;;;;;5091524;28;20155;-69
2021/06/26 05:38:43;;;;;;;0.32;0.32;;;27.70;99.90;;;;;;5091581;28;20156;-69
2021/06/26 05:41:09;;;;;;;0.17;0.17;;;28.30;99.90;;;;;;5073499;28;20225;-69
2021/06/26 05:43:36;;;;;;;0.10;0.10;;;27.80;99.90;;;;;;5073238;28;20163;-69
2021/06/26 05:46:02;;;;;;;0.20;0.20;;;25.60;99.90;;;;;;5091425;28;20194;-69
2021/06/26 05:48:28;;;;;;;0.10;0.10;;;24.50;99.90;;;;;;5091509;28;20155;-69
2021/06/26 05:50:54;;;;;;;0.20;0.20;;;24.20;99.90;;;;;;5091395;28;20194;-69
2021/06/26 05:53:20;;;;;;;0.10;0.10;;;24.30;99.90;;;;;;5085914;28;20176;-69
2021/06/26 05:56:01;;;;;;;0.00;0.00;;;24.10;99.90;;;;;;5052628;28;20176;-69
2021/06/26 05:58:36;;;;;;;0.43;0.43;;;24.80;99.90;;;;;;5087399;28;20175;-69
2021/06/26 06:01:10;;;;;;;0.10;0.10;;;25.00;99.90;;;;;;5091132;28;20193;-69
2021/06/26 06:03:36;;;;;;;0.05;0.05;;;24.70;99.90;;;;;;5090531;28;20152;-69
2021/06/26 06:06:02;;;;;;;0.32;0.32;;;24.80;99.90;;;;;;5090877;28;20289;-69
2021/06/26 06:08:28;;;;;;;0.10;0.10;;;24.90;99.90;;;;;;5090893;28;20187;-69
2021/06/26 06:10:54;;;;;;;0.73;0.32;;;25.30;99.90;;;;;;5090740;28;20184;-69
2021/06/26 06:13:22;;;;;;;0.20;0.20;;;25.60;99.90;;;;;;5090788;28;20219;-69
2021/06/26 06:15:49;;;;;;;0.10;0.10;;;25.50;99.90;;;;;;5090715;28;20163;-69
2021/06/26 06:18:17;;;;;;;0.30;0.30;;;25.60;99.90;;;;;;5090888;28;20167;-69
2021/06/26 06:20:44;;;;;;;0.10;0.10;;;25.50;99.90;;;;;;5072490;28;20201;-69
2021/06/26 06:23:10;;;;;;;0.38;0.38;;;26.60;99.90;;;;;;5090417;28;20174;-69
2021/06/26 06:25:36;;;;;;;0.10;0.10;;;26.70;99.90;;;;;;5090374;28;20187;-69
2021/06/26 06:28:03;;;;;;;0.10;0.10;;;27.40;99.90;;;;;;5090316;28;20160;-69
2021/06/26 06:30:31;;;;;;;0.10;0.10;;;27.90;99.90;;;;;;5090431;28;20183;-70
2021/06/26 06:32:58;;;;;;;0.65;0.28;;;27.10;99.90;;;;;;5088893;28;20701;-69
2021/06/26 06:35:25;;;;;;;0.05;0.05;;;26.90;99.90;;;;;;5085177;28;20771;-67
2021/06/26 06:37:51;;;;;;;0.20;0.20;;;26.10;99.90;;;;;;5071673;28;20182;-67
2021/06/26 06:40:17;;;;;;;2.00;0.28;;;26.10;99.90;;;;;;5089515;28;20191;-70
2021/06/26 06:42:44;;;;;;;0.17;0.17;;;27.10;99.90;;;;;;5089911;28;20164;-69
2021/06/26 06:45:11;;;;;;;0.15;0.15;;;26.70;99.90;;;;;;5089389;28;20248;-67
2021/06/26 06:47:38;;;;;;;0.10;0.10;;;26.40;99.90;;;;;;5089571;28;20187;-69
2021/06/26 06:50:07;;;;;;;0.00;0.00;;;26.50;99.90;;;;;;5089294;28;20156;-68
2021/06/26 06:52:33;;;;;;;0.30;0.30;;;27.50;99.90;;;;;;5089919;28;20148;-69
2021/06/26 06:54:59;;;;;;;0.10;0.10;;;26.80;99.90;;;;;;5089791;28;20164;-70
2021/06/26 06:57:26;;;;;;;0.00;0.00;;;26.50;99.90;;;;;;5084515;28;20229;-69
2021/06/26 06:59:53;;;;;;;0.17;0.17;;;26.50;99.90;;;;;;5087319;28;20238;-69
2021/06/26 07:02:20;;;;;;;0.00;0.00;;;26.60;99.90;;;;;;5089831;28;20156;-69
2021/06/26 07:04:46;;;;;;;0.10;0.10;;;26.50;99.90;;;;;;5089216;28;20187;-70
2021/06/26 07:07:13;;;;;;;0.10;0.10;;;26.60;99.90;;;;;;5089468;28;20219;-69
2021/06/26 07:09:39;;;;;;;0.70;0.38;;;26.70;99.90;;;;;;5078055;28;20160;-69
2021/06/26 07:12:05;;;;;;;0.20;0.20;;;27.80;99.90;;;;;;5069356;28;20148;-70
2021/06/26 07:14:31;;;;;;;0.10;0.10;;;28.30;99.90;;;;;;5068234;28;20156;-70
2021/06/26 07:16:57;;;;;;;0.10;0.10;;;29.10;99.90;;;;;;5069281;28;20192;-69
2021/06/26 07:19:23;;;;;;;0.00;0.00;;;30.40;99.90;;;;;;5068844;28;20190;-69
2021/06/26 07:21:49;;;;;;;0.20;0.20;;;29.00;99.90;;;;;;5051506;28;20190;-69
2021/06/26 07:24:14;;;;;;;0.08;0.08;;;29.00;99.90;;;;;;5051242;28;20168;-69
2021/06/26 07:26:41;;;;;;;0.10;0.10;;;28.30;99.90;;;;;;5068812;28;20200;-69
2021/06/26 07:29:07;;;;;;;0.10;0.10;;;28.20;99.90;;;;;;5068496;28;20160;-69
2021/06/26 07:31:34;;;;;;;0.30;0.30;;;27.70;99.90;;;;;;5069421;28;20210;-69
2021/06/26 07:34:01;;;;;;;0.10;0.10;;;27.40;99.90;;;;;;5069216;28;20188;-69
2021/06/26 07:36:26;;;;;;;0.10;0.10;;;27.10;99.90;;;;;;5056062;28;20197;-69
2021/06/26 07:38:53;;;;;;;0.10;0.10;;;27.20;99.90;;;;;;5088753;28;20179;-70
2021/06/26 07:41:19;;;;;;;0.08;0.08;;;28.80;99.90;;;;;;5088417;28;20157;-70
2021/06/26 07:43:45;;;;;;;0.10;0.10;;;31.30;99.90;;;;;;5088826;28;20246;-69
2021/06/26 07:46:11;;;;;;;0.10;0.10;;;31.90;99.90;;;;;;5089097;28;20187;-69
2021/06/26 07:48:37;;;;;;;0.30;0.30;;;30.00;99.90;;;;;;5089236;28;20201;-69
2021/06/26 07:51:04;;;;;;;0.20;0.13;;;29.30;99.90;;;;;;5088311;28;20152;-69
2021/06/26 07:53:29;;;;;;;0.10;0.10;;;27.90;99.90;;;;;;5089021;28;20229;-69
2021/06/26 07:55:55;;;;;;;0.45;0.10;;;28.00;99.90;;;;;;5089068;28;20167;-69
2021/06/26 07:58:26;;;;;;;0.10;0.10;;;28.70;99.90;;;;;;5075046;28;20164;-69
2021/06/26 08:00:55;;;;;;;0.20;0.20;;;28.30;99.90;;;;;;5087922;28;20183;-68
2021/06/26 08:03:22;;;;;;;0.10;0.10;;;28.20;99.90;;;;;;5088788;28;20203;-69
2021/06/26 08:05:49;;;;;;;0.00;0.00;;;28.40;99.90;;;;;;5088803;28;20190;-69
2021/06/26 08:08:15;;;;;;;0.10;0.10;;;28.20;99.90;;;;;;5070583;28;20179;-69
2021/06/26 08:10:42;;;;;;;0.20;0.20;;;28.50;99.90;;;;;;5106109;28;20167;-68
2021/06/26 08:13:08;;;;;;;1.17;0.45;;;28.90;99.90;;;;;;5103026;28;20195;-68
2021/06/26 08:15:36;;;;;;;0.03;0.03;;;28.60;99.90;;;;;;5070586;28;20171;-69
2021/06/26 08:18:03;;;;;;;0.10;0.10;;;28.70;99.90;;;;;;5069350;28;20221;-69
2021/06/26 08:20:30;;;;;;;0.20;0.20;;;29.30;99.90;;;;;;5070867;28;20187;-69
2021/06/26 08:22:57;;;;;;;0.10;0.10;;;31.00;99.90;;;;;;5084816;28;20659;-69
2021/06/26 08:25:24;;;;;;;0.10;0.10;;;32.70;99.90;;;;;;5110357;28;20186;-70
2021/06/26 08:27:50;;;;;;;0.28;0.28;;;33.80;99.90;;;;;;5094656;28;20573;-69
2021/06/26 08:30:16;;;;;;;0.10;0.10;;;32.50;99.90;;;;;;5112861;28;20162;-68
2021/06/26 08:32:43;;;;;;;0.10;0.10;;;31.10;99.90;;;;;;5094200;28;20204;-69
2021/06/26 08:35:10;;;;;;;0.77;0.70;;;30.60;99.90;;;;;;5112856;28;20155;-69
2021/06/26 08:37:36;;;;;;;0.20;0.20;;;29.50;99.90;;;;;;5112923;28;20226;-69
2021/06/26 08:40:04;;;;;;;0.10;0.10;;;29.30;99.90;;;;;;5112802;28;20201;-69
2021/06/26 08:42:30;;;;;;;0.10;0.10;;;30.60;99.90;;;;;;5112093;28;20186;-69
2021/06/26 08:45:01;;;;;;;0.55;0.22;;;32.00;99.90;;;;;;5112553;28;20677;-69
2021/06/26 08:47:28;;;;;;;0.10;0.10;;;31.00;99.90;;;;;;5094741;28;20166;-66
2021/06/26 08:49:55;;;;;;;0.30;0.30;;;32.00;99.90;;;;;;5094373;28;20250;-70
2021/06/26 08:52:20;;;;;;;0.17;0.17;;;33.40;99.30;;;;;;5112017;28;20159;-69
2021/06/26 08:54:51;;;;;;;0.10;0.10;;;32.30;98.90;;;;;;5112566;28;20155;-69
2021/06/26 08:57:30;;;;;;;0.10;0.10;;;32.00;99.90;;;;;;5105109;28;20164;-68
2021/06/26 08:59:58;;;;;;;0.25;0.20;;;33.20;99.90;;;;;;5086963;28;20683;-69
2021/06/26 09:02:25;;;;;;;0.20;0.20;;;33.40;99.80;;;;;;5091493;28;20166;-69
2021/06/26 09:04:52;;;;;;;0.10;0.10;;;33.60;99.30;;;;;;5092069;28;20187;-68
2021/06/26 09:07:40;;;;;;;0.28;0.28;;;33.20;98.50;;;;;;5092060;28;20152;-69
2021/06/26 09:10:12;;;;;;;0.10;0.10;;;34.00;99.30;;;;;;5073880;28;20203;-69
2021/06/26 09:12:39;;;;;;;0.08;0.08;;;32.60;99.90;;;;;;5091160;28;20156;-69
2021/06/26 09:15:07;;;;;;;0.00;0.00;;;31.60;98.20;;;;;;5091826;28;20182;-69
2021/06/26 09:17:35;;;;;;;0.10;0.10;;;32.50;98.60;;;;;;5091890;28;20166;-69
2021/06/26 09:20:06;;;;;;;0.10;0.10;;;31.50;98.90;;;;;;5091618;28;20199;-69
2021/06/26 09:22:41;;;;;;;0.20;0.20;;;32.00;98.40;;;;;;5091317;28;20159;-69
2021/06/26 09:25:29;;;;;;;0.30;0.20;;;33.80;97.10;;;;;;5091786;28;20214;-69
2021/06/26 09:27:58;;;;;;;0.10;0.10;;;33.50;97.40;;;;;;5079164;28;20171;-69
2021/06/26 09:30:38;;;;;;;0.00;0.00;;;33.80;96.10;;;;;;5091645;28;20155;-70
2021/06/26 09:33:19;;;;;;;0.10;0.10;;;34.20;95.00;;;;;;5091370;28;20151;-70
2021/06/26 09:36:07;;;;;;;0.10;0.10;;;33.80;94.80;;;;;;5091528;28;20202;-69
2021/06/26 09:38:35;;;;;;;1.63;0.35;;;33.20;96.20;;;;;;5089731;28;20198;-69
2021/06/26 09:41:15;;;;;;;0.08;0.08;;;33.50;94.80;;;;;;5072740;28;20199;-69
2021/06/26 09:43:41;;;;;;;0.32;0.32;;;32.70;95.90;;;;;;5072837;28;20647;-69
2021/06/26 09:46:18;;;;;;;0.75;0.32;;;32.60;96.50;;;;;;5091197;28;20187;-69
2021/06/26 09:48:59;;;;;;;0.10;0.10;;;32.80;95.30;;;;;;5091219;28;20201;-68
2021/06/26 09:51:28;;;;;;;0.00;0.00;;;34.00;97.40;;;;;;5090741;28;20196;-69
2021/06/26 09:53:59;;;;;;;0.10;0.10;;;34.40;95.00;;;;;;5072944;28;20176;-69
2021/06/26 09:56:46;;;;;;;0.20;0.20;;;35.00;94.40;;;;;;5090937;28;20162;-69
2021/06/26 09:59:17;;;;;;;0.10;0.10;;;32.90;94.70;;;;;;5080379;28;20192;-70
2021/06/26 10:01:46;;;;;;;0.05;0.05;;;33.00;95.10;;;;;;5090125;28;20151;-69
2021/06/26 10:04:16;;;;;;;0.28;0.20;;;32.40;95.70;;;;;;5090881;28;20179;-70
2021/06/26 10:06:44;;;;;;;0.20;0.20;;;32.90;97.00;;;;;;5072818;28;20183;-69
2021/06/26 10:09:10;;;;;;;0.10;0.10;;;34.00;94.50;;;;;;5090711;28;20237;-70
2021/06/26 10:11:39;;;;;;;0.00;0.00;;;34.70;94.70;;;;;;5090239;28;20163;-70
2021/06/26 10:14:08;;;;;;;0.10;0.10;;;35.90;94.30;;;;;;5090584;28;20152;-69
2021/06/26 10:16:35;;;;;;;0.08;0.08;;;34.60;95.20;;;;;;5090636;28;20175;-69
2021/06/26 10:19:04;;;;;;;0.08;0.08;;;32.60;94.80;;;;;;5090607;28;20187;-69
2021/06/26 10:21:32;;;;;;;0.20;0.20;;;31.70;97.30;;;;;;5072104;28;20175;-69
2021/06/26 10:23:59;;;;;;;0.10;0.10;;;31.80;98.10;;;;;;5090252;28;20159;-69
2021/06/26 10:26:27;;;;;;;0.10;0.10;;;32.40;96.00;;;;;;5090199;28;20184;-74
2021/06/26 10:29:01;;;;;;;0.10;0.10;;;32.40;95.50;;;;;;5090209;28;20274;-75
2021/06/26 10:31:38;;;;;;;0.17;0.17;;;32.50;96.80;;;;;;5089898;28;20213;-74
2021/06/26 10:34:09;;;;;;;0.20;0.20;;;32.50;97.10;;;;;;5089927;28;20218;-74
2021/06/26 10:36:36;;;;;;;0.08;0.08;;;33.30;95.40;;;;;;5090142;28;20152;-75
2021/06/26 10:39:15;;;;;;;0.10;0.10;;;33.50;94.60;;;;;;5072056;28;20203;-74
2021/06/26 10:41:41;;;;;;;0.03;0.03;;;34.20;95.40;;;;;;5089579;28;20228;-74
2021/06/26 10:44:07;;;;;;;6.97;0.30;;;35.60;95.80;;;;;;5089671;28;20280;-74
2021/06/26 10:46:34;;;;;;;0.17;0.17;;;35.10;94.70;;;;;;5089805;28;20214;-74
2021/06/26 10:49:03;;;;;;;0.32;0.30;;;33.00;94.30;;;;;;5089813;28;20270;-74
2021/06/26 10:51:40;;;;;;;0.30;0.30;;;32.60;95.50;;;;;;5089675;28;20527;-74
2021/06/26 10:54:15;;;;;;;0.30;0.30;;;33.20;94.80;;;;;;5089364;28;20156;-74
2021/06/26 10:56:43;;;;;;;0.20;0.20;;;33.00;96.90;;;;;;5069273;28;20158;-73
2021/06/26 10:59:18;;;;;;;0.10;0.10;;;30.90;95.60;;;;;;5078974;28;20199;-74
2021/06/26 11:01:59;;;;;;;0.13;0.13;;;29.20;97.60;;;;;;5089725;28;20158;-74
2021/06/26 11:04:25;;;;;;;0.20;0.20;;;28.90;98.00;;;;;;5071608;28;20202;-74
2021/06/26 11:07:06;;;;;;;0.10;0.10;;;29.60;97.80;;;;;;5089729;28;20520;-74
2021/06/26 11:09:40;;;;;;;0.10;0.10;;;31.40;96.80;;;;;;5089467;28;20212;-74
2021/06/26 11:12:18;;;;;;;0.30;0.30;;;32.80;95.50;;;;;;5071793;28;20175;-74
2021/06/26 11:14:55;;;;;;;0.10;0.10;;;31.80;95.50;;;;;;5089428;28;20583;-74
2021/06/26 11:17:32;;;;;;;0.40;0.40;;;31.20;97.50;;;;;;5071504;28;20175;-74
2021/06/26 11:19:59;;;;;;;0.30;0.30;;;31.30;97.60;;;;;;5071166;28;20415;-75
2021/06/26 11:22:25;;;;;;;0.10;0.10;;;30.00;97.90;;;;;;5089389;28;20155;-74
2021/06/26 11:24:51;;;;;;;0.17;0.17;;;29.80;98.90;;;;;;5089219;28;20197;-74
2021/06/26 11:27:23;;;;;;;0.17;0.17;;;28.50;99.20;;;;;;5071642;28;20644;-74
2021/06/26 11:29:50;;;;;;;0.20;0.20;;;28.70;99.90;;;;;;5088665;28;20218;-74
2021/06/26 11:32:20;;;;;;;0.20;0.20;;;29.60;98.60;;;;;;5096671;28;20171;-74
2021/06/26 11:35:18;;;;;;;0.40;0.40;;;30.50;97.50;;;;;;5098930;28;20179;-74
2021/06/26 11:37:49;;;;;;;0.10;0.10;;;31.70;97.70;;;;;;5007573;28;20208;-74
2021/06/26 11:40:15;;;;;;;0.47;0.20;;;31.80;97.10;;;;;;5007451;28;20213;-75
2021/06/26 11:42:53;;;;;;;0.00;0.00;;;32.10;97.70;;;;;;5007475;28;20213;-75
2021/06/26 11:45:34;;;;;;;0.38;0.38;;;33.60;95.80;;;;;;5009950;28;20272;-75
2021/06/26 11:48:00;;;;;;;0.13;0.13;;;32.30;95.80;;;;;;5000240;28;20225;-74
2021/06/26 11:50:26;;;;;;;0.57;0.57;;;31.20;96.50;;;;;;5006944;28;20177;-75
2021/06/26 11:53:03;;;;;;;0.20;0.20;;;31.70;98.30;;;;;;5007063;28;20170;-75
2021/06/26 11:55:37;;;;;;;0.25;0.25;;;32.30;95.90;;;;;;5007271;28;20234;-75
2021/06/26 11:58:03;;;;;;;0.17;0.17;;;30.80;98.80;;;;;;5019560;28;20173;-74
2021/06/26 12:00:29;;;;;;;14.60;0.32;;;30.60;97.70;;;;;;5006312;28;20213;-74
2021/06/26 12:02:55;;;;;;;0.80;0.55;;;30.90;98.20;;;;;;4991008;28;20176;-74
2021/06/26 12:05:21;;;;;;;0.20;0.20;;;30.60;98.50;;;;;;5007075;28;20737;-74
2021/06/26 12:07:49;;;;;;;0.20;0.20;;;31.00;97.60;;;;;;4990376;28;20197;-74
2021/06/26 12:10:15;;;;;;;0.20;0.20;;;30.50;97.20;;;;;;5006985;28;20190;-74
2021/06/26 12:12:41;;;;;;;0.20;0.20;;;29.70;98.20;;;;;;5022085;28;20188;-73
2021/06/26 12:15:10;;;;;;;0.90;0.47;;;30.90;98.90;;;;;;5068594;28;20168;-74
2021/06/26 12:17:37;;;;;;;0.68;0.60;;;32.00;98.00;;;;;;5068575;28;20177;-73
2021/06/26 12:20:09;;;;;;;0.28;0.28;;;32.20;99.20;;;;;;5068206;28;20195;-74
2021/06/26 12:22:35;;;;;;;0.28;0.28;;;31.60;98.60;;;;;;5068383;28;20183;-74
2021/06/26 12:25:07;;;;;;;0.32;0.32;;;30.60;97.40;;;;;;5050375;28;20200;-74
2021/06/26 12:27:33;;;;;;;0.20;0.20;;;29.80;99.40;;;;;;5050743;28;20165;-73
2021/06/26 12:30:05;;;;;;;0.20;0.20;;;29.00;99.10;;;;;;5050135;28;20742;-74
2021/06/26 12:32:33;;;;;;;1.65;0.20;;;28.50;99.90;;;;;;5068315;28;20163;-74
2021/06/26 12:35:00;;;;;;;0.25;0.25;;;28.80;99.80;;;;;;5068608;28;20188;-74
2021/06/26 12:37:31;;;;;;;0.15;0.15;;;28.90;99.90;;;;;;5068362;28;20257;-74
2021/06/26 12:40:10;;;;;;;0.20;0.20;;;29.10;99.90;;;;;;5050215;28;20240;-74
2021/06/26 12:42:53;;;;;;;0.13;0.13;;;29.00;99.70;;;;;;5068348;28;20168;-74
2021/06/26 12:45:47;;;;;;;0.10;0.10;;;28.70;99.10;;;;;;5050252;28;20243;-74
2021/06/26 12:48:17;;;;;;;0.20;0.20;;;28.50;99.90;;;;;;5056374;28;20195;-74
2021/06/26 12:50:50;;;;;;;0.20;0.20;;;28.90;98.60;;;;;;5103810;28;20198;-74